首页
METAR-TAF:

METAR-TAF

机场 :

巴吞鲁日, 路易斯安那州, 美国

纬度: 30-32-14N, 经度: 091-08-49W, 海拔: 21米

当前天气观测

该预报发布于1小时和4分钟前的21:53 UTC
风速10节,风向
温度 9°C
湿度 81%
气压 1020 hPa
能見度: 16.1公里
多云层高于800英尺
阴天层高于4100英尺

METAR: KBTR 022153Z 36010KT 10SM BKN008 OVC041 09/06 A3011 RMK AO2 SLP194 T00940061

时间: 16:57 (22:57 UTC)

预报

该预报发布于5小时和9分钟前的17:48 UTC
预报有效从02日的 18点(UTC)到 03日的 18点(UTC)
风速8节,风向
能見度: 10公里
阴天层高于900英尺
从 03日的 1600点(UTC)
风速6节,风向北转东北
能見度: 10公里
散云层高于25000英尺

TAF: KBTR 021748Z 0218/0318 35008KT P6SM OVC009 FM031600 02006KT P6SM SCT250

超过4000个机场的气象观测和天气预报(METAR&TAF报告)。

可查询的气象台以黄色和红色小点在地图上表示。

将鼠标移到小点上方,可查看气象台名称。

然后点击查看天气观测和预报。

如需切换地图:点击带黑十字的绿色按钮放大地图;点击带横线的绿色按钮缩小地图;或者点击绿色箭头查看邻近地区的地图。


METAR-TAF: